createdAt,value
2017-11-29T00:00:03.142Z,2.8
2017-11-29T00:15:02.726Z,2.7
2017-11-29T00:30:03.395Z,2.7
2017-11-29T00:45:02.943Z,2.8
2017-11-29T01:00:02.577Z,2.7
2017-11-29T01:15:03.243Z,2.8
2017-11-29T01:30:02.928Z,2.7
2017-11-29T01:45:02.537Z,2.7
2017-11-29T02:00:03.135Z,2.7
2017-11-29T02:15:02.721Z,2.8
2017-11-29T02:30:03.449Z,2.7
2017-11-29T02:45:03.011Z,2.8
2017-11-29T03:00:02.598Z,2.7
2017-11-29T03:15:03.179Z,2.7
2017-11-29T03:30:02.872Z,2.8
2017-11-29T03:45:03.464Z,2.8
2017-11-29T04:00:03.077Z,2.7
2017-11-29T04:15:02.688Z,2.6
2017-11-29T04:30:03.327Z,2.7
2017-11-29T04:45:02.915Z,2.8
2017-11-29T05:00:02.527Z,2.6
2017-11-29T05:15:03.122Z,2.7
2017-11-29T05:30:02.805Z,2.7
2017-11-29T05:45:03.410Z,2.6
2017-11-29T06:00:02.967Z,2.6
2017-11-29T06:15:02.612Z,2.6
2017-11-29T06:30:03.397Z,2.6
2017-11-29T06:45:02.938Z,2.6
2017-11-29T07:00:02.588Z,2.6
2017-11-29T07:15:03.125Z,2.6
2017-11-29T07:30:02.798Z,2.8
2017-11-29T07:45:03.373Z,3
2017-11-29T08:00:02.929Z,3.1
2017-11-29T08:15:03.484Z,3.2
2017-11-29T08:30:03.123Z,3.4
2017-11-29T08:45:02.676Z,3.6
2017-11-29T09:00:03.278Z,3.6
2017-11-29T09:15:02.843Z,3.7
2017-11-29T09:30:02.513Z,3.8
2017-11-29T09:45:03.068Z,3.9
2017-11-29T10:00:02.683Z,3.9
2017-11-29T10:15:03.540Z,3.9
2017-11-29T10:30:03.178Z,4.2
2017-11-29T10:45:02.762Z,4.2
2017-11-29T11:00:03.336Z,4.5
2017-11-29T11:15:02.931Z,4.6
2017-11-29T11:30:02.588Z,4.8
2017-11-29T11:45:03.175Z,4.8
2017-11-29T12:00:02.746Z,4.8
2017-11-29T12:15:03.287Z,4.8
2017-11-29T12:30:02.909Z,4.8
2017-11-29T12:45:02.520Z,4.8
2017-11-29T13:00:03.145Z,5.1
2017-11-29T13:15:02.710Z,5.1
2017-11-29T13:30:03.387Z,4.9
2017-11-29T13:45:02.936Z,4.6
2017-11-29T14:00:02.515Z,4.4
2017-11-29T14:15:03.097Z,4.3
2017-11-29T14:30:02.736Z,4.3
2017-11-29T14:45:03.343Z,4.2
2017-11-29T15:00:02.945Z,4.1
2017-11-29T15:15:02.503Z,4
2017-11-29T15:30:03.142Z,3.9
2017-11-29T15:45:02.766Z,3.8
2017-11-29T16:00:03.404Z,3.6
2017-11-29T16:15:02.945Z,3.6
2017-11-29T16:30:02.656Z,3.6
2017-11-29T16:45:03.210Z,3.5
2017-11-29T17:00:02.786Z,3.4
2017-11-29T17:15:03.390Z,3.4
2017-11-29T17:30:03.007Z,3.4
2017-11-29T17:45:02.679Z,3.4
2017-11-29T18:00:03.284Z,3.2
2017-11-29T18:15:02.873Z,3.3
2017-11-29T18:30:02.569Z,3.3
2017-11-29T18:45:03.113Z,3.4
2017-11-29T19:00:02.676Z,3.3
2017-11-29T19:15:03.236Z,3.2
2017-11-29T19:30:02.971Z,3.1
2017-11-29T19:45:02.548Z,3.1
2017-11-29T20:00:03.157Z,3
2017-11-29T20:15:02.707Z,3
2017-11-29T20:30:03.337Z,2.9
2017-11-29T20:45:02.955Z,2.8
2017-11-29T21:00:02.536Z,2.8
2017-11-29T21:15:03.130Z,2.7
2017-11-29T21:30:02.805Z,2.8
2017-11-29T21:45:03.342Z,2.7
2017-11-29T22:00:02.985Z,2.6
2017-11-29T22:15:02.579Z,2.7
2017-11-29T22:30:03.330Z,2.6
2017-11-29T22:45:02.884Z,2.4
2017-11-29T23:00:03.464Z,2.3
2017-11-29T23:15:03.311Z,2.2
2017-11-29T23:30:03.134Z,2.1
2017-11-29T23:45:02.755Z,2.1
